sensor_id;sensor_type;location;lat;lon;timestamp;P1;durP1;ratioP1;P2;durP2;ratioP2
55148;SDS011;49539;48.160;11.530;2023-01-28T00:01:38;31.73;;;14.68;;
55148;SDS011;49539;48.160;11.530;2023-01-28T00:04:03;29.23;;;16.13;;
55148;SDS011;49539;48.160;11.530;2023-01-28T00:06:28;28.00;;;14.45;;
55148;SDS011;49539;48.160;11.530;2023-01-28T00:08:54;31.63;;;16.17;;
55148;SDS011;49539;48.160;11.530;2023-01-28T00:11:20;27.00;;;14.77;;
55148;SDS011;49539;48.160;11.530;2023-01-28T00:13:49;31.95;;;14.77;;
55148;SDS011;49539;48.160;11.530;2023-01-28T00:16:15;31.83;;;16.52;;
55148;SDS011;49539;48.160;11.530;2023-01-28T00:18:40;30.08;;;15.63;;
55148;SDS011;49539;48.160;11.530;2023-01-28T00:21:07;27.15;;;15.82;;
55148;SDS011;49539;48.160;11.530;2023-01-28T00:23:35;33.13;;;16.52;;
55148;SDS011;49539;48.160;11.530;2023-01-28T00:26:01;33.60;;;16.92;;
55148;SDS011;49539;48.160;11.530;2023-01-28T00:28:27;29.40;;;14.95;;
55148;SDS011;49539;48.160;11.530;2023-01-28T00:30:52;32.05;;;16.13;;
55148;SDS011;49539;48.160;11.530;2023-01-28T00:33:17;31.50;;;16.33;;
55148;SDS011;49539;48.160;11.530;2023-01-28T00:35:42;30.13;;;17.13;;
55148;SDS011;49539;48.160;11.530;2023-01-28T00:38:08;32.58;;;17.65;;
55148;SDS011;49539;48.160;11.530;2023-01-28T00:40:34;30.45;;;16.02;;
55148;SDS011;49539;48.160;11.530;2023-01-28T00:42:59;31.98;;;16.77;;
55148;SDS011;49539;48.160;11.530;2023-01-28T00:45:24;34.08;;;17.23;;
55148;SDS011;49539;48.160;11.530;2023-01-28T00:47:50;32.45;;;16.80;;
55148;SDS011;49539;48.160;11.530;2023-01-28T00:50:15;32.60;;;16.00;;
55148;SDS011;49539;48.160;11.530;2023-01-28T00:52:40;30.45;;;15.38;;
55148;SDS011;49539;48.160;11.530;2023-01-28T00:55:06;27.55;;;15.18;;
55148;SDS011;49539;48.160;11.530;2023-01-28T00:57:31;28.48;;;14.25;;
55148;SDS011;49539;48.160;11.530;2023-01-28T00:59:57;30.90;;;16.00;;
55148;SDS011;49539;48.160;11.530;2023-01-28T01:02:23;28.88;;;14.95;;
55148;SDS011;49539;48.160;11.530;2023-01-28T01:04:49;28.50;;;15.77;;
55148;SDS011;49539;48.160;11.530;2023-01-28T01:09:59;25.88;;;14.65;;
55148;SDS011;49539;48.160;11.530;2023-01-28T01:12:27;28.98;;;15.32;;
55148;SDS011;49539;48.160;11.530;2023-01-28T01:14:52;29.27;;;15.80;;
55148;SDS011;49539;48.160;11.530;2023-01-28T01:17:17;30.77;;;15.98;;
55148;SDS011;49539;48.160;11.530;2023-01-28T01:19:43;27.92;;;15.77;;
55148;SDS011;49539;48.160;11.530;2023-01-28T01:22:08;32.72;;;16.42;;
55148;SDS011;49539;48.160;11.530;2023-01-28T01:24:33;27.60;;;15.75;;
55148;SDS011;49539;48.160;11.530;2023-01-28T01:26:59;30.52;;;15.43;;
55148;SDS011;49539;48.160;11.530;2023-01-28T01:29:24;32.30;;;15.30;;
55148;SDS011;49539;48.160;11.530;2023-01-28T01:31:49;31.65;;;17.25;;
55148;SDS011;49539;48.160;11.530;2023-01-28T01:34:15;30.95;;;16.13;;
55148;SDS011;49539;48.160;11.530;2023-01-28T01:36:40;34.50;;;14.70;;
55148;SDS011;49539;48.160;11.530;2023-01-28T01:39:09;32.65;;;15.52;;
55148;SDS011;49539;48.160;11.530;2023-01-28T01:41:35;27.23;;;15.55;;
55148;SDS011;49539;48.160;11.530;2023-01-28T01:44:02;31.38;;;15.80;;
55148;SDS011;49539;48.160;11.530;2023-01-28T01:46:31;31.23;;;14.73;;
55148;SDS011;49539;48.160;11.530;2023-01-28T01:48:56;27.08;;;13.98;;
55148;SDS011;49539;48.160;11.530;2023-01-28T01:51:25;31.75;;;16.02;;
55148;SDS011;49539;48.160;11.530;2023-01-28T01:53:52;32.13;;;17.15;;
55148;SDS011;49539;48.160;11.530;2023-01-28T01:56:20;36.17;;;16.17;;
55148;SDS011;49539;48.160;11.530;2023-01-28T01:58:48;30.60;;;15.43;;
55148;SDS011;49539;48.160;11.530;2023-01-28T02:01:16;30.17;;;15.75;;
55148;SDS011;49539;48.160;11.530;2023-01-28T02:06:26;30.33;;;17.02;;
55148;SDS011;49539;48.160;11.530;2023-01-28T02:08:53;32.05;;;15.75;;
55148;SDS011;49539;48.160;11.530;2023-01-28T02:11:19;27.55;;;15.30;;
55148;SDS011;49539;48.160;11.530;2023-01-28T02:13:47;29.05;;;15.48;;
55148;SDS011;49539;48.160;11.530;2023-01-28T02:16:13;31.13;;;16.52;;
55148;SDS011;49539;48.160;11.530;2023-01-28T02:18:39;30.35;;;15.85;;
55148;SDS011;49539;48.160;11.530;2023-01-28T02:28:44;29.92;;;15.13;;
55148;SDS011;49539;48.160;11.530;2023-01-28T02:31:14;33.45;;;17.08;;
55148;SDS011;49539;48.160;11.530;2023-01-28T02:36:52;29.00;;;16.23;;
55148;SDS011;49539;48.160;11.530;2023-01-28T02:38:57;32.92;;;14.98;;
55148;SDS011;49539;48.160;11.530;2023-01-28T02:41:30;37.17;;;16.55;;
55148;SDS011;49539;48.160;11.530;2023-01-28T02:43:56;30.92;;;16.38;;
55148;SDS011;49539;48.160;11.530;2023-01-28T02:49:10;30.60;;;15.50;;
55148;SDS011;49539;48.160;11.530;2023-01-28T03:02:11;30.55;;;15.93;;
55148;SDS011;49539;48.160;11.530;2023-01-28T03:04:42;33.13;;;15.57;;
55148;SDS011;49539;48.160;11.530;2023-01-28T03:07:09;32.75;;;16.25;;
55148;SDS011;49539;48.160;11.530;2023-01-28T03:09:37;35.05;;;16.42;;
55148;SDS011;49539;48.160;11.530;2023-01-28T03:14:51;36.80;;;16.73;;
55148;SDS011;49539;48.160;11.530;2023-01-28T03:17:46;31.35;;;17.02;;
55148;SDS011;49539;48.160;11.530;2023-01-28T03:20:35;34.25;;;15.98;;
55148;SDS011;49539;48.160;11.530;2023-01-28T03:23:21;29.23;;;15.10;;
55148;SDS011;49539;48.160;11.530;2023-01-28T03:26:06;32.90;;;15.32;;
55148;SDS011;49539;48.160;11.530;2023-01-28T03:28:51;32.33;;;15.95;;
55148;SDS011;49539;48.160;11.530;2023-01-28T03:31:37;35.97;;;15.02;;
55148;SDS011;49539;48.160;11.530;2023-01-28T03:34:21;30.48;;;15.73;;
55148;SDS011;49539;48.160;11.530;2023-01-28T03:37:06;32.70;;;18.13;;
55148;SDS011;49539;48.160;11.530;2023-01-28T03:39:33;24.60;;;14.15;;
55148;SDS011;49539;48.160;11.530;2023-01-28T03:42:09;28.75;;;14.95;;
55148;SDS011;49539;48.160;11.530;2023-01-28T03:44:35;28.40;;;15.27;;
55148;SDS011;49539;48.160;11.530;2023-01-28T03:47:21;35.00;;;16.02;;
55148;SDS011;49539;48.160;11.530;2023-01-28T03:49:47;29.23;;;15.68;;
55148;SDS011;49539;48.160;11.530;2023-01-28T03:52:14;31.17;;;15.27;;
55148;SDS011;49539;48.160;11.530;2023-01-28T03:54:40;33.20;;;16.20;;
55148;SDS011;49539;48.160;11.530;2023-01-28T03:57:05;30.55;;;15.30;;
55148;SDS011;49539;48.160;11.530;2023-01-28T03:59:31;32.30;;;16.42;;
55148;SDS011;49539;48.160;11.530;2023-01-28T04:01:56;24.17;;;14.60;;
55148;SDS011;49539;48.160;11.530;2023-01-28T04:04:22;29.42;;;15.20;;
55148;SDS011;49539;48.160;11.530;2023-01-28T04:06:49;31.13;;;15.10;;
55148;SDS011;49539;48.160;11.530;2023-01-28T04:09:14;27.60;;;15.10;;
55148;SDS011;49539;48.160;11.530;2023-01-28T04:11:40;29.50;;;15.27;;
55148;SDS011;49539;48.160;11.530;2023-01-28T04:14:05;32.75;;;16.48;;
55148;SDS011;49539;48.160;11.530;2023-01-28T04:16:32;26.63;;;15.45;;
55148;SDS011;49539;48.160;11.530;2023-01-28T04:18:57;30.20;;;14.45;;
55148;SDS011;49539;48.160;11.530;2023-01-28T04:21:23;28.17;;;13.45;;
55148;SDS011;49539;48.160;11.530;2023-01-28T04:23:48;26.40;;;13.95;;
55148;SDS011;49539;48.160;11.530;2023-01-28T04:26:14;28.45;;;13.57;;
55148;SDS011;49539;48.160;11.530;2023-01-28T04:28:39;26.63;;;13.68;;
55148;SDS011;49539;48.160;11.530;2023-01-28T04:31:04;26.67;;;13.07;;
55148;SDS011;49539;48.160;11.530;2023-01-28T04:33:30;27.08;;;13.93;;
55148;SDS011;49539;48.160;11.530;2023-01-28T04:35:55;30.35;;;14.32;;
55148;SDS011;49539;48.160;11.530;2023-01-28T04:38:20;30.33;;;14.93;;
55148;SDS011;49539;48.160;11.530;2023-01-28T04:40:52;27.13;;;14.93;;
55148;SDS011;49539;48.160;11.530;2023-01-28T04:43:17;26.42;;;13.98;;
55148;SDS011;49539;48.160;11.530;2023-01-28T04:45:45;25.70;;;14.25;;
55148;SDS011;49539;48.160;11.530;2023-01-28T04:48:11;28.17;;;13.30;;
55148;SDS011;49539;48.160;11.530;2023-01-28T04:50:36;28.85;;;14.60;;
55148;SDS011;49539;48.160;11.530;2023-01-28T04:53:01;27.00;;;14.05;;
55148;SDS011;49539;48.160;11.530;2023-01-28T04:55:27;25.75;;;13.80;;
55148;SDS011;49539;48.160;11.530;2023-01-28T04:57:52;29.65;;;14.68;;
55148;SDS011;49539;48.160;11.530;2023-01-28T05:00:17;25.25;;;13.95;;
55148;SDS011;49539;48.160;11.530;2023-01-28T05:02:43;24.20;;;13.32;;
55148;SDS011;49539;48.160;11.530;2023-01-28T05:05:08;28.20;;;13.88;;
55148;SDS011;49539;48.160;11.530;2023-01-28T05:07:34;25.20;;;13.55;;
55148;SDS011;49539;48.160;11.530;2023-01-28T05:09:59;27.08;;;13.70;;
55148;SDS011;49539;48.160;11.530;2023-01-28T05:12:24;28.52;;;13.98;;
55148;SDS011;49539;48.160;11.530;2023-01-28T05:14:49;31.23;;;14.65;;
55148;SDS011;49539;48.160;11.530;2023-01-28T05:17:15;29.10;;;13.65;;
55148;SDS011;49539;48.160;11.530;2023-01-28T05:19:41;28.35;;;14.15;;
55148;SDS011;49539;48.160;11.530;2023-01-28T05:22:06;24.45;;;13.85;;
55148;SDS011;49539;48.160;11.530;2023-01-28T05:24:31;24.77;;;13.65;;
55148;SDS011;49539;48.160;11.530;2023-01-28T05:26:56;27.95;;;14.82;;
55148;SDS011;49539;48.160;11.530;2023-01-28T05:29:22;28.08;;;13.88;;
55148;SDS011;49539;48.160;11.530;2023-01-28T05:31:47;26.13;;;15.18;;
55148;SDS011;49539;48.160;11.530;2023-01-28T05:34:12;31.05;;;14.80;;
55148;SDS011;49539;48.160;11.530;2023-01-28T05:36:38;28.15;;;13.68;;
55148;SDS011;49539;48.160;11.530;2023-01-28T05:39:05;27.05;;;14.13;;
55148;SDS011;49539;48.160;11.530;2023-01-28T05:41:31;28.35;;;13.13;;
55148;SDS011;49539;48.160;11.530;2023-01-28T05:43:57;26.65;;;13.50;;
55148;SDS011;49539;48.160;11.530;2023-01-28T05:46:22;26.77;;;14.25;;
55148;SDS011;49539;48.160;11.530;2023-01-28T05:48:49;28.85;;;14.45;;
55148;SDS011;49539;48.160;11.530;2023-01-28T05:51:15;26.58;;;13.77;;
55148;SDS011;49539;48.160;11.530;2023-01-28T05:53:40;25.27;;;14.10;;
55148;SDS011;49539;48.160;11.530;2023-01-28T05:56:05;25.63;;;14.07;;
55148;SDS011;49539;48.160;11.530;2023-01-28T05:58:31;25.48;;;13.60;;
55148;SDS011;49539;48.160;11.530;2023-01-28T06:00:56;29.13;;;14.80;;
55148;SDS011;49539;48.160;11.530;2023-01-28T06:03:22;23.48;;;14.38;;
55148;SDS011;49539;48.160;11.530;2023-01-28T06:05:47;28.75;;;13.73;;
55148;SDS011;49539;48.160;11.530;2023-01-28T06:08:13;28.15;;;13.98;;
55148;SDS011;49539;48.160;11.530;2023-01-28T06:10:38;22.08;;;12.27;;
55148;SDS011;49539;48.160;11.530;2023-01-28T06:13:04;23.20;;;12.60;;
55148;SDS011;49539;48.160;11.530;2023-01-28T06:15:29;28.08;;;14.25;;
55148;SDS011;49539;48.160;11.530;2023-01-28T06:17:54;25.00;;;13.63;;
55148;SDS011;49539;48.160;11.530;2023-01-28T06:20:19;25.80;;;13.68;;
55148;SDS011;49539;48.160;11.530;2023-01-28T06:22:45;26.60;;;13.27;;
55148;SDS011;49539;48.160;11.530;2023-01-28T06:25:10;25.40;;;13.55;;
55148;SDS011;49539;48.160;11.530;2023-01-28T06:27:35;28.30;;;14.48;;
55148;SDS011;49539;48.160;11.530;2023-01-28T06:30:01;31.80;;;13.80;;
55148;SDS011;49539;48.160;11.530;2023-01-28T06:32:27;25.15;;;13.45;;
55148;SDS011;49539;48.160;11.530;2023-01-28T06:34:52;25.88;;;13.45;;
55148;SDS011;49539;48.160;11.530;2023-01-28T06:37:17;28.13;;;14.32;;
55148;SDS011;49539;48.160;11.530;2023-01-28T06:39:43;25.40;;;13.35;;
55148;SDS011;49539;48.160;11.530;2023-01-28T06:42:08;28.45;;;14.38;;
55148;SDS011;49539;48.160;11.530;2023-01-28T06:44:33;30.60;;;14.85;;
55148;SDS011;49539;48.160;11.530;2023-01-28T06:46:58;25.98;;;14.30;;
55148;SDS011;49539;48.160;11.530;2023-01-28T06:49:24;27.90;;;14.70;;
55148;SDS011;49539;48.160;11.530;2023-01-28T06:51:49;26.30;;;13.70;;
55148;SDS011;49539;48.160;11.530;2023-01-28T06:54:14;23.55;;;12.90;;
55148;SDS011;49539;48.160;11.530;2023-01-28T06:56:40;24.42;;;13.80;;
55148;SDS011;49539;48.160;11.530;2023-01-28T06:59:05;26.27;;;13.55;;
55148;SDS011;49539;48.160;11.530;2023-01-28T07:01:30;28.83;;;13.98;;
55148;SDS011;49539;48.160;11.530;2023-01-28T07:03:56;29.15;;;14.70;;
55148;SDS011;49539;48.160;11.530;2023-01-28T07:06:21;29.42;;;14.38;;
55148;SDS011;49539;48.160;11.530;2023-01-28T07:08:46;26.08;;;14.40;;
55148;SDS011;49539;48.160;11.530;2023-01-28T07:11:12;27.15;;;14.18;;
55148;SDS011;49539;48.160;11.530;2023-01-28T07:13:37;26.52;;;13.88;;
55148;SDS011;49539;48.160;11.530;2023-01-28T07:16:02;31.70;;;13.32;;
55148;SDS011;49539;48.160;11.530;2023-01-28T07:18:32;28.35;;;14.27;;
55148;SDS011;49539;48.160;11.530;2023-01-28T07:20:57;24.00;;;13.90;;
55148;SDS011;49539;48.160;11.530;2023-01-28T07:23:23;30.88;;;16.55;;
55148;SDS011;49539;48.160;11.530;2023-01-28T07:25:48;26.15;;;13.45;;
55148;SDS011;49539;48.160;11.530;2023-01-28T07:28:13;24.63;;;13.68;;
55148;SDS011;49539;48.160;11.530;2023-01-28T07:30:45;24.20;;;14.43;;
55148;SDS011;49539;48.160;11.530;2023-01-28T07:33:10;28.17;;;14.25;;
55148;SDS011;49539;48.160;11.530;2023-01-28T07:35:35;27.55;;;13.75;;
55148;SDS011;49539;48.160;11.530;2023-01-28T07:38:00;28.75;;;13.75;;
55148;SDS011;49539;48.160;11.530;2023-01-28T07:40:26;22.17;;;12.90;;
55148;SDS011;49539;48.160;11.530;2023-01-28T07:42:52;28.80;;;13.68;;
55148;SDS011;49539;48.160;11.530;2023-01-28T07:45:19;23.13;;;13.20;;
55148;SDS011;49539;48.160;11.530;2023-01-28T07:47:51;25.08;;;13.10;;
55148;SDS011;49539;48.160;11.530;2023-01-28T07:50:17;28.90;;;13.57;;
55148;SDS011;49539;48.160;11.530;2023-01-28T07:52:42;23.38;;;12.52;;
55148;SDS011;49539;48.160;11.530;2023-01-28T07:55:10;23.58;;;12.50;;
55148;SDS011;49539;48.160;11.530;2023-01-28T07:58:01;21.50;;;12.30;;
55148;SDS011;49539;48.160;11.530;2023-01-28T08:00:26;25.15;;;12.40;;
55148;SDS011;49539;48.160;11.530;2023-01-28T08:02:55;25.85;;;12.90;;
55148;SDS011;49539;48.160;11.530;2023-01-28T08:05:21;26.35;;;13.50;;
55148;SDS011;49539;48.160;11.530;2023-01-28T08:07:47;26.33;;;12.60;;
55148;SDS011;49539;48.160;11.530;2023-01-28T08:10:13;24.95;;;13.13;;
55148;SDS011;49539;48.160;11.530;2023-01-28T08:12:39;23.35;;;12.40;;
55148;SDS011;49539;48.160;11.530;2023-01-28T08:15:04;24.92;;;12.57;;
55148;SDS011;49539;48.160;11.530;2023-01-28T08:17:30;22.58;;;12.90;;
55148;SDS011;49539;48.160;11.530;2023-01-28T08:19:55;24.38;;;11.93;;
55148;SDS011;49539;48.160;11.530;2023-01-28T08:22:24;23.17;;;11.18;;
55148;SDS011;49539;48.160;11.530;2023-01-28T08:24:49;26.15;;;12.98;;
55148;SDS011;49539;48.160;11.530;2023-01-28T08:27:15;27.02;;;12.82;;
55148;SDS011;49539;48.160;11.530;2023-01-28T08:29:40;24.23;;;11.90;;
55148;SDS011;49539;48.160;11.530;2023-01-28T08:32:05;23.55;;;11.98;;
55148;SDS011;49539;48.160;11.530;2023-01-28T08:34:30;25.17;;;11.23;;
55148;SDS011;49539;48.160;11.530;2023-01-28T08:36:56;20.83;;;11.32;;
55148;SDS011;49539;48.160;11.530;2023-01-28T08:39:21;21.52;;;11.02;;
55148;SDS011;49539;48.160;11.530;2023-01-28T08:41:46;21.42;;;11.43;;
55148;SDS011;49539;48.160;11.530;2023-01-28T08:44:12;23.40;;;12.13;;
55148;SDS011;49539;48.160;11.530;2023-01-28T08:46:37;24.10;;;12.60;;
55148;SDS011;49539;48.160;11.530;2023-01-28T08:49:02;24.02;;;12.38;;
55148;SDS011;49539;48.160;11.530;2023-01-28T08:51:27;26.02;;;11.85;;
55148;SDS011;49539;48.160;11.530;2023-01-28T08:53:53;27.05;;;13.23;;
55148;SDS011;49539;48.160;11.530;2023-01-28T08:56:18;22.83;;;11.30;;
55148;SDS011;49539;48.160;11.530;2023-01-28T08:58:43;21.40;;;11.55;;
55148;SDS011;49539;48.160;11.530;2023-01-28T09:01:09;23.38;;;11.05;;
55148;SDS011;49539;48.160;11.530;2023-01-28T09:03:34;20.35;;;11.40;;
55148;SDS011;49539;48.160;11.530;2023-01-28T09:06:00;21.83;;;11.90;;
55148;SDS011;49539;48.160;11.530;2023-01-28T09:08:26;18.60;;;11.27;;
55148;SDS011;49539;48.160;11.530;2023-01-28T09:10:55;22.40;;;12.02;;
55148;SDS011;49539;48.160;11.530;2023-01-28T09:13:20;22.77;;;10.88;;
55148;SDS011;49539;48.160;11.530;2023-01-28T09:15:46;20.05;;;11.32;;
55148;SDS011;49539;48.160;11.530;2023-01-28T09:18:11;20.27;;;11.90;;
55148;SDS011;49539;48.160;11.530;2023-01-28T09:20:36;24.58;;;11.02;;
55148;SDS011;49539;48.160;11.530;2023-01-28T09:23:03;20.92;;;10.98;;
55148;SDS011;49539;48.160;11.530;2023-01-28T09:25:28;19.63;;;10.82;;
55148;SDS011;49539;48.160;11.530;2023-01-28T09:27:54;18.75;;;11.02;;
55148;SDS011;49539;48.160;11.530;2023-01-28T09:30:19;18.88;;;11.52;;
55148;SDS011;49539;48.160;11.530;2023-01-28T09:32:44;20.90;;;11.50;;
55148;SDS011;49539;48.160;11.530;2023-01-28T09:35:13;20.15;;;10.90;;
55148;SDS011;49539;48.160;11.530;2023-01-28T09:37:39;20.08;;;11.18;;
55148;SDS011;49539;48.160;11.530;2023-01-28T09:40:04;21.10;;;12.38;;
55148;SDS011;49539;48.160;11.530;2023-01-28T09:42:43;21.33;;;11.95;;
55148;SDS011;49539;48.160;11.530;2023-01-28T09:45:16;21.38;;;11.73;;
55148;SDS011;49539;48.160;11.530;2023-01-28T09:47:52;21.20;;;12.52;;
55148;SDS011;49539;48.160;11.530;2023-01-28T09:52:43;22.77;;;13.18;;
55148;SDS011;49539;48.160;11.530;2023-01-28T09:55:14;22.70;;;11.40;;
55148;SDS011;49539;48.160;11.530;2023-01-28T09:57:50;24.48;;;11.60;;
55148;SDS011;49539;48.160;11.530;2023-01-28T10:00:17;23.60;;;11.90;;
55148;SDS011;49539;48.160;11.530;2023-01-28T10:02:48;20.30;;;10.85;;
55148;SDS011;49539;48.160;11.530;2023-01-28T10:05:19;19.48;;;11.43;;
55148;SDS011;49539;48.160;11.530;2023-01-28T10:07:51;21.10;;;11.13;;
55148;SDS011;49539;48.160;11.530;2023-01-28T10:10:26;21.73;;;10.77;;
55148;SDS011;49539;48.160;11.530;2023-01-28T10:12:56;20.60;;;10.30;;
55148;SDS011;49539;48.160;11.530;2023-01-28T10:15:27;24.60;;;11.48;;
55148;SDS011;49539;48.160;11.530;2023-01-28T10:17:55;18.38;;;10.02;;
55148;SDS011;49539;48.160;11.530;2023-01-28T10:20:23;18.65;;;10.52;;
55148;SDS011;49539;48.160;11.530;2023-01-28T10:25:25;18.83;;;10.30;;
55148;SDS011;49539;48.160;11.530;2023-01-28T10:27:52;18.25;;;9.73;;
55148;SDS011;49539;48.160;11.530;2023-01-28T10:37:43;16.60;;;8.73;;
55148;SDS011;49539;48.160;11.530;2023-01-28T10:40:12;15.57;;;8.98;;
55148;SDS011;49539;48.160;11.530;2023-01-28T10:42:39;21.05;;;10.75;;
55148;SDS011;49539;48.160;11.530;2023-01-28T10:45:08;14.43;;;8.68;;
55148;SDS011;49539;48.160;11.530;2023-01-28T10:47:40;18.40;;;9.32;;
55148;SDS011;49539;48.160;11.530;2023-01-28T10:50:14;21.70;;;10.27;;
55148;SDS011;49539;48.160;11.530;2023-01-28T10:52:49;21.30;;;10.95;;
55148;SDS011;49539;48.160;11.530;2023-01-28T10:55:16;15.60;;;8.60;;
55148;SDS011;49539;48.160;11.530;2023-01-28T10:57:41;22.67;;;10.88;;
55148;SDS011;49539;48.160;11.530;2023-01-28T11:02:44;16.80;;;10.02;;
55148;SDS011;49539;48.160;11.530;2023-01-28T11:05:16;15.35;;;9.43;;
55148;SDS011;49539;48.160;11.530;2023-01-28T11:07:42;18.40;;;9.75;;
55148;SDS011;49539;48.160;11.530;2023-01-28T11:10:21;15.40;;;8.93;;
55148;SDS011;49539;48.160;11.530;2023-01-28T11:12:53;17.95;;;9.23;;
55148;SDS011;49539;48.160;11.530;2023-01-28T11:20:19;19.30;;;9.20;;
55148;SDS011;49539;48.160;11.530;2023-01-28T11:22:45;16.73;;;8.93;;
55148;SDS011;49539;48.160;11.530;2023-01-28T11:25:27;16.00;;;8.75;;
55148;SDS011;49539;48.160;11.530;2023-01-28T11:27:53;19.25;;;8.60;;
55148;SDS011;49539;48.160;11.530;2023-01-28T11:32:53;19.70;;;10.13;;
55148;SDS011;49539;48.160;11.530;2023-01-28T11:35:25;17.08;;;10.25;;
55148;SDS011;49539;48.160;11.530;2023-01-28T11:37:53;19.42;;;9.32;;
55148;SDS011;49539;48.160;11.530;2023-01-28T11:40:19;13.85;;;8.18;;
55148;SDS011;49539;48.160;11.530;2023-01-28T11:42:54;13.98;;;8.45;;
55148;SDS011;49539;48.160;11.530;2023-01-28T11:50:52;15.60;;;8.02;;
55148;SDS011;49539;48.160;11.530;2023-01-28T11:53:31;16.45;;;8.23;;
55148;SDS011;49539;48.160;11.530;2023-01-28T11:58:36;17.77;;;9.38;;
55148;SDS011;49539;48.160;11.530;2023-01-28T12:01:12;16.70;;;8.68;;
55148;SDS011;49539;48.160;11.530;2023-01-28T12:03:49;13.30;;;7.70;;
55148;SDS011;49539;48.160;11.530;2023-01-28T12:06:29;16.77;;;8.55;;
55148;SDS011;49539;48.160;11.530;2023-01-28T12:14:22;11.65;;;7.20;;
55148;SDS011;49539;48.160;11.530;2023-01-28T12:19:30;18.67;;;9.68;;
55148;SDS011;49539;48.160;11.530;2023-01-28T12:24:44;24.83;;;13.15;;
55148;SDS011;49539;48.160;11.530;2023-01-28T12:29:51;21.15;;;11.63;;
55148;SDS011;49539;48.160;11.530;2023-01-28T12:45:01;21.73;;;11.35;;
55148;SDS011;49539;48.160;11.530;2023-01-28T12:47:30;24.58;;;11.00;;
55148;SDS011;49539;48.160;11.530;2023-01-28T12:50:00;20.42;;;11.20;;
55148;SDS011;49539;48.160;11.530;2023-01-28T12:52:32;18.60;;;10.20;;
55148;SDS011;49539;48.160;11.530;2023-01-28T12:55:00;18.40;;;10.02;;
55148;SDS011;49539;48.160;11.530;2023-01-28T12:57:28;22.13;;;10.43;;
55148;SDS011;49539;48.160;11.530;2023-01-28T13:02:41;22.07;;;10.40;;
55148;SDS011;49539;48.160;11.530;2023-01-28T13:05:22;22.23;;;10.35;;
55148;SDS011;49539;48.160;11.530;2023-01-28T13:07:54;16.20;;;9.63;;
55148;SDS011;49539;48.160;11.530;2023-01-28T13:12:46;21.08;;;11.38;;
55148;SDS011;49539;48.160;11.530;2023-01-28T13:15:12;16.65;;;9.27;;
55148;SDS011;49539;48.160;11.530;2023-01-28T13:17:39;19.23;;;10.30;;
55148;SDS011;49539;48.160;11.530;2023-01-28T13:20:13;17.92;;;10.35;;
55148;SDS011;49539;48.160;11.530;2023-01-28T13:22:38;15.57;;;8.32;;
55148;SDS011;49539;48.160;11.530;2023-01-28T13:25:19;15.07;;;8.45;;
55148;SDS011;49539;48.160;11.530;2023-01-28T13:27:53;16.70;;;8.25;;
55148;SDS011;49539;48.160;11.530;2023-01-28T13:30:25;14.52;;;8.73;;
55148;SDS011;49539;48.160;11.530;2023-01-28T13:33:01;17.00;;;9.07;;
55148;SDS011;49539;48.160;11.530;2023-01-28T13:35:34;19.45;;;9.68;;
55148;SDS011;49539;48.160;11.530;2023-01-28T13:38:08;14.75;;;8.70;;
55148;SDS011;49539;48.160;11.530;2023-01-28T13:40:34;15.98;;;9.07;;
55148;SDS011;49539;48.160;11.530;2023-01-28T13:43:04;16.05;;;9.43;;
55148;SDS011;49539;48.160;11.530;2023-01-28T13:45:31;16.23;;;8.35;;
55148;SDS011;49539;48.160;11.530;2023-01-28T13:50:48;16.50;;;8.85;;
55148;SDS011;49539;48.160;11.530;2023-01-28T13:55:59;15.53;;;8.67;;
55148;SDS011;49539;48.160;11.530;2023-01-28T13:58:42;18.13;;;9.88;;
55148;SDS011;49539;48.160;11.530;2023-01-28T14:09:21;17.77;;;9.20;;
55148;SDS011;49539;48.160;11.530;2023-01-28T14:14:57;17.02;;;8.68;;
55148;SDS011;49539;48.160;11.530;2023-01-28T14:19:57;19.10;;;9.95;;
55148;SDS011;49539;48.160;11.530;2023-01-28T14:22:23;19.00;;;10.63;;
55148;SDS011;49539;48.160;11.530;2023-01-28T14:24:48;19.85;;;10.25;;
55148;SDS011;49539;48.160;11.530;2023-01-28T14:32:30;21.20;;;11.33;;
55148;SDS011;49539;48.160;11.530;2023-01-28T14:34:56;19.33;;;9.35;;
55148;SDS011;49539;48.160;11.530;2023-01-28T14:37:23;19.33;;;9.32;;
55148;SDS011;49539;48.160;11.530;2023-01-28T14:39:51;15.27;;;8.25;;
55148;SDS011;49539;48.160;11.530;2023-01-28T14:42:21;15.38;;;8.55;;
55148;SDS011;49539;48.160;11.530;2023-01-28T14:44:48;16.40;;;8.77;;
55148;SDS011;49539;48.160;11.530;2023-01-28T14:57:36;19.92;;;9.48;;
55148;SDS011;49539;48.160;11.530;2023-01-28T15:00:13;13.57;;;8.43;;
55148;SDS011;49539;48.160;11.530;2023-01-28T15:02:41;16.05;;;8.82;;
55148;SDS011;49539;48.160;11.530;2023-01-28T15:05:13;22.70;;;10.35;;
55148;SDS011;49539;48.160;11.530;2023-01-28T15:07:42;19.45;;;9.68;;
55148;SDS011;49539;48.160;11.530;2023-01-28T15:10:23;16.55;;;9.18;;
55148;SDS011;49539;48.160;11.530;2023-01-28T15:13:12;15.57;;;8.25;;
55148;SDS011;49539;48.160;11.530;2023-01-28T15:15:38;16.40;;;9.30;;
55148;SDS011;49539;48.160;11.530;2023-01-28T15:18:46;15.63;;;8.70;;
55148;SDS011;49539;48.160;11.530;2023-01-28T15:20:52;19.58;;;8.73;;
55148;SDS011;49539;48.160;11.530;2023-01-28T15:23:25;18.73;;;8.77;;
55148;SDS011;49539;48.160;11.530;2023-01-28T15:25:51;16.08;;;8.65;;
55148;SDS011;49539;48.160;11.530;2023-01-28T15:28:41;16.02;;;8.00;;
55148;SDS011;49539;48.160;11.530;2023-01-28T15:31:05;22.23;;;9.07;;
55148;SDS011;49539;48.160;11.530;2023-01-28T15:33:30;17.58;;;8.55;;
55148;SDS011;49539;48.160;11.530;2023-01-28T15:35:56;16.83;;;8.70;;
55148;SDS011;49539;48.160;11.530;2023-01-28T15:38:22;15.88;;;8.32;;
55148;SDS011;49539;48.160;11.530;2023-01-28T15:40:58;15.43;;;8.45;;
55148;SDS011;49539;48.160;11.530;2023-01-28T15:43:30;16.40;;;8.77;;
55148;SDS011;49539;48.160;11.530;2023-01-28T15:48:30;18.80;;;9.43;;
55148;SDS011;49539;48.160;11.530;2023-01-28T15:51:03;15.80;;;8.52;;
55148;SDS011;49539;48.160;11.530;2023-01-28T15:53:50;21.85;;;8.48;;
55148;SDS011;49539;48.160;11.530;2023-01-28T15:56:14;19.63;;;8.65;;
55148;SDS011;49539;48.160;11.530;2023-01-28T15:58:40;14.65;;;8.82;;
55148;SDS011;49539;48.160;11.530;2023-01-28T16:03:34;19.48;;;9.07;;
55148;SDS011;49539;48.160;11.530;2023-01-28T16:06:13;19.08;;;9.25;;
55148;SDS011;49539;48.160;11.530;2023-01-28T16:08:54;16.80;;;9.65;;
55148;SDS011;49539;48.160;11.530;2023-01-28T16:11:24;18.52;;;8.73;;
55148;SDS011;49539;48.160;11.530;2023-01-28T16:13:50;16.27;;;8.35;;
55148;SDS011;49539;48.160;11.530;2023-01-28T16:16:23;16.23;;;8.38;;
55148;SDS011;49539;48.160;11.530;2023-01-28T16:18:51;18.35;;;9.88;;
55148;SDS011;49539;48.160;11.530;2023-01-28T16:23:52;19.80;;;9.77;;
55148;SDS011;49539;48.160;11.530;2023-01-28T16:26:21;20.60;;;8.93;;
55148;SDS011;49539;48.160;11.530;2023-01-28T16:28:47;29.75;;;9.88;;
55148;SDS011;49539;48.160;11.530;2023-01-28T16:31:13;18.67;;;9.98;;
55148;SDS011;49539;48.160;11.530;2023-01-28T16:33:38;16.15;;;9.18;;